createdAt,value
2018-06-04T00:00:27.084Z,0.00
2018-06-04T00:01:26.964Z,0.00
2018-06-04T00:02:26.874Z,0.00
2018-06-04T00:03:26.785Z,0.00
2018-06-04T00:04:26.694Z,0.00
2018-06-04T00:05:26.610Z,0.00
2018-06-04T00:06:26.545Z,0.00
2018-06-04T00:07:26.425Z,0.00
2018-06-04T00:08:26.337Z,0.00
2018-06-04T00:09:26.247Z,0.00
2018-06-04T00:10:26.160Z,0.00
2018-06-04T00:11:26.099Z,0.00
2018-06-04T00:12:25.980Z,0.00
2018-06-04T00:13:25.887Z,0.00
2018-06-04T00:14:25.819Z,0.00
2018-06-04T00:15:25.713Z,0.00
2018-06-04T00:16:25.655Z,0.00
2018-06-04T00:17:25.533Z,0.00
2018-06-04T00:18:25.445Z,0.00
2018-06-04T00:19:25.355Z,0.00
2018-06-04T00:20:25.942Z,0.00
2018-06-04T00:21:25.205Z,0.00
2018-06-04T00:22:25.088Z,0.00
2018-06-04T00:23:25.000Z,0.00
2018-06-04T00:24:24.907Z,0.00
2018-06-04T00:25:24.819Z,0.00
2018-06-04T00:26:25.450Z,0.00
2018-06-04T00:27:24.640Z,0.00
2018-06-04T00:28:24.550Z,0.00
2018-06-04T00:29:24.458Z,0.00
2018-06-04T00:30:24.370Z,0.00
2018-06-04T00:31:24.308Z,0.00
2018-06-04T00:32:24.222Z,0.00
2018-06-04T00:33:24.098Z,0.00
2018-06-04T00:34:24.013Z,0.00
2018-06-04T00:35:23.927Z,0.00
2018-06-04T00:36:23.862Z,0.00
2018-06-04T00:37:23.746Z,0.00
2018-06-04T00:38:23.656Z,0.00
2018-06-04T00:39:23.564Z,0.00
2018-06-04T00:40:23.474Z,0.00
2018-06-04T00:41:23.412Z,0.00
2018-06-04T00:42:23.292Z,0.00
2018-06-04T00:43:23.202Z,0.00
2018-06-04T00:44:23.119Z,0.00
2018-06-04T00:45:23.023Z,0.00
2018-06-04T00:46:22.964Z,0.00
2018-06-04T00:47:22.846Z,0.00
2018-06-04T00:48:22.753Z,0.00
2018-06-04T00:49:22.668Z,0.00
2018-06-04T00:50:22.617Z,0.00
2018-06-04T00:51:22.517Z,0.00
2018-06-04T00:52:22.393Z,0.00
2018-06-04T00:53:22.305Z,0.00
2018-06-04T00:54:22.217Z,0.00
2018-06-04T00:55:22.125Z,0.00
2018-06-04T00:56:22.065Z,0.00
2018-06-04T00:57:21.947Z,0.00
2018-06-04T00:58:21.855Z,0.00
2018-06-04T00:59:21.764Z,0.00
2018-06-04T01:00:21.674Z,0.00
2018-06-04T01:01:21.591Z,0.00
2018-06-04T01:02:21.523Z,0.00
2018-06-04T01:03:21.403Z,0.00
2018-06-04T01:04:21.323Z,0.00
2018-06-04T01:05:21.226Z,0.00
2018-06-04T01:06:21.900Z,0.00
2018-06-04T01:07:21.073Z,0.00
2018-06-04T01:08:20.954Z,0.00
2018-06-04T01:09:20.865Z,0.00
2018-06-04T01:10:20.777Z,0.00
2018-06-04T01:11:22.404Z,0.00
2018-06-04T01:12:20.629Z,0.00
2018-06-04T01:13:20.507Z,0.00
2018-06-04T01:14:20.420Z,0.00
2018-06-04T01:15:20.328Z,0.00
2018-06-04T01:16:20.238Z,0.00
2018-06-04T01:17:20.274Z,0.00
2018-06-04T01:18:20.057Z,0.00
2018-06-04T01:19:19.971Z,0.00
2018-06-04T01:20:19.881Z,0.00
2018-06-04T01:21:19.791Z,0.00
2018-06-04T01:22:19.734Z,0.00
2018-06-04T01:23:19.612Z,0.00
2018-06-04T01:24:19.522Z,0.00
2018-06-04T01:25:19.432Z,0.00
2018-06-04T01:26:19.345Z,0.00
2018-06-04T01:27:19.286Z,0.00
2018-06-04T01:28:19.163Z,0.00
2018-06-04T01:29:19.075Z,0.00
2018-06-04T01:30:18.989Z,0.00
2018-06-04T01:31:18.989Z,0.00
2018-06-04T01:32:18.836Z,0.00
2018-06-04T01:33:18.717Z,0.00
2018-06-04T01:34:18.628Z,0.00
2018-06-04T01:35:18.540Z,0.00
2018-06-04T01:36:18.447Z,0.00
2018-06-04T01:37:18.390Z,0.00
2018-06-04T01:38:18.381Z,0.00
2018-06-04T01:39:18.183Z,0.00
2018-06-04T01:40:18.093Z,0.00
2018-06-04T01:41:17.996Z,0.00
2018-06-04T01:42:17.940Z,0.00
2018-06-04T01:43:18.411Z,0.00
2018-06-04T01:44:17.733Z,0.00
2018-06-04T01:45:17.733Z,0.00
2018-06-04T01:46:17.550Z,0.00
2018-06-04T01:47:17.492Z,0.00
2018-06-04T01:48:17.374Z,0.00
2018-06-04T01:49:17.284Z,0.00
2018-06-04T01:50:17.193Z,0.00
2018-06-04T01:51:17.104Z,0.00
2018-06-04T01:52:17.134Z,0.00
2018-06-04T01:53:16.927Z,0.00
2018-06-04T01:54:16.834Z,0.00
2018-06-04T01:55:16.743Z,0.00
2018-06-04T01:56:16.655Z,0.00
2018-06-04T01:57:16.595Z,0.00
2018-06-04T01:58:16.475Z,0.00
2018-06-04T01:59:16.489Z,0.00
2018-06-04T02:00:16.297Z,0.00
2018-06-04T02:01:16.207Z,0.00
2018-06-04T02:02:16.147Z,0.00
2018-06-04T02:03:16.028Z,0.00
2018-06-04T02:04:15.936Z,0.00
2018-06-04T02:05:15.850Z,0.00
2018-06-04T02:06:15.847Z,0.00
2018-06-04T02:07:15.667Z,0.00
2018-06-04T02:08:15.605Z,0.00
2018-06-04T02:09:15.487Z,0.00
2018-06-04T02:10:15.402Z,0.00
2018-06-04T02:11:15.309Z,0.00
2018-06-04T02:12:15.917Z,0.00
2018-06-04T02:13:15.251Z,0.00
2018-06-04T02:14:15.037Z,0.00
2018-06-04T02:15:14.953Z,0.00
2018-06-04T02:16:14.859Z,0.00
2018-06-04T02:17:14.770Z,0.00
2018-06-04T02:18:16.419Z,0.00
2018-06-04T02:19:14.590Z,0.00
2018-06-04T02:20:14.590Z,4.00
2018-06-04T02:21:14.409Z,4.00
2018-06-04T02:22:14.319Z,4.00
2018-06-04T02:23:14.260Z,0.00
2018-06-04T02:24:14.140Z,4.00
2018-06-04T02:25:14.050Z,4.00
2018-06-04T02:26:13.965Z,0.00
2018-06-04T02:27:13.961Z,4.00
2018-06-04T02:28:13.809Z,8.00
2018-06-04T02:29:13.693Z,4.00
2018-06-04T02:30:13.606Z,8.00
2018-06-04T02:31:13.520Z,8.00
2018-06-04T02:32:13.423Z,8.00
2018-06-04T02:33:13.358Z,12.00
2018-06-04T02:34:13.334Z,12.00
2018-06-04T02:35:13.927Z,12.00
2018-06-04T02:36:13.064Z,16.00
2018-06-04T02:37:12.975Z,16.00
2018-06-04T02:38:12.912Z,20.00
2018-06-04T02:39:12.792Z,24.00
2018-06-04T02:40:12.721Z,24.00
2018-06-04T02:41:12.612Z,28.00
2018-06-04T02:42:12.523Z,32.00
2018-06-04T02:43:12.469Z,32.00
2018-06-04T02:44:12.343Z,40.00
2018-06-04T02:45:12.254Z,44.00
2018-06-04T02:46:12.162Z,52.00
2018-06-04T02:47:12.077Z,56.00
2018-06-04T02:48:12.099Z,60.00
2018-06-04T02:49:11.892Z,72.00
2018-06-04T02:50:11.856Z,76.00
2018-06-04T02:51:11.714Z,84.00
2018-06-04T02:52:11.637Z,92.00
2018-06-04T02:53:11.561Z,104.00
2018-06-04T02:54:11.537Z,116.00
2018-06-04T02:55:11.351Z,128.00
2018-06-04T02:56:11.264Z,140.00
2018-06-04T02:57:11.169Z,152.00
2018-06-04T02:58:11.110Z,168.00
2018-06-04T02:59:10.988Z,184.00
2018-06-04T03:00:10.901Z,200.00
2018-06-04T03:01:10.814Z,216.00
2018-06-04T03:02:10.720Z,232.00
2018-06-04T03:03:10.661Z,252.00
2018-06-04T03:04:11.432Z,272.00
2018-06-04T03:05:10.449Z,296.00
2018-06-04T03:06:10.359Z,316.00
2018-06-04T03:07:10.268Z,340.00
2018-06-04T03:08:10.277Z,360.00
2018-06-04T03:09:10.117Z,388.00
2018-06-04T03:10:09.997Z,416.00
2018-06-04T03:11:10.433Z,440.00
2018-06-04T03:12:09.819Z,468.00
2018-06-04T03:13:09.749Z,496.00
2018-06-04T03:14:09.669Z,524.00
2018-06-04T03:15:09.548Z,556.00
2018-06-04T03:16:09.457Z,584.00
2018-06-04T03:17:09.366Z,620.00
2018-06-04T03:18:09.281Z,656.00
2018-06-04T03:19:09.219Z,688.00
2018-06-04T03:20:09.094Z,724.00
2018-06-04T03:21:09.006Z,756.00
2018-06-04T03:22:08.919Z,792.00
2018-06-04T03:23:08.830Z,832.00
2018-06-04T03:24:08.766Z,868.00
2018-06-04T03:25:08.645Z,904.00
2018-06-04T03:26:08.551Z,944.00
2018-06-04T03:27:08.460Z,988.00
2018-06-04T03:28:08.373Z,1028.00
2018-06-04T03:29:08.314Z,1068.00
2018-06-04T03:30:08.192Z,1112.00
2018-06-04T03:31:08.128Z,1156.00
2018-06-04T03:32:08.012Z,1200.00
2018-06-04T03:33:07.920Z,1248.00
2018-06-04T03:34:07.863Z,1292.00
2018-06-04T03:35:07.746Z,1332.00
2018-06-04T03:36:07.647Z,1372.00
2018-06-04T03:37:07.556Z,1408.00
2018-06-04T03:38:07.469Z,1444.00
2018-06-04T03:39:07.408Z,1480.00
2018-06-04T03:40:07.290Z,1516.00
2018-06-04T03:41:07.197Z,1548.00
2018-06-04T03:42:07.111Z,1584.00
2018-06-04T03:43:07.015Z,1624.00
2018-06-04T03:44:06.960Z,1668.00
2018-06-04T03:45:06.833Z,1704.00
2018-06-04T03:46:06.747Z,1744.00
2018-06-04T03:47:06.656Z,1788.00
2018-06-04T03:48:06.569Z,1836.00
2018-06-04T03:49:06.504Z,1880.00
2018-06-04T03:50:06.387Z,1924.00
2018-06-04T03:51:06.296Z,1968.00
2018-06-04T03:52:06.229Z,2016.00
2018-06-04T03:53:06.113Z,2060.00
2018-06-04T03:54:06.056Z,2108.00
2018-06-04T03:55:05.936Z,2156.00
2018-06-04T03:56:05.842Z,2200.00
2018-06-04T03:57:05.751Z,2248.00
2018-06-04T03:58:05.951Z,2288.00
2018-06-04T03:59:05.605Z,2336.00
2018-06-04T04:00:05.483Z,2384.00
2018-06-04T04:01:05.392Z,2436.00
2018-06-04T04:02:05.302Z,2484.00
2018-06-04T04:03:05.210Z,2540.00
2018-06-04T04:04:05.161Z,2588.00
2018-06-04T04:05:05.051Z,2640.00
2018-06-04T04:06:04.946Z,2696.00
2018-06-04T04:07:04.854Z,2748.00
2018-06-04T04:08:05.444Z,2792.00
2018-06-04T04:09:04.700Z,2848.00
2018-06-04T04:10:04.583Z,2900.00
2018-06-04T04:11:04.498Z,2956.00
2018-06-04T04:12:04.400Z,3004.00
2018-06-04T04:13:04.312Z,3040.00
2018-06-04T04:14:04.251Z,3088.00
2018-06-04T04:15:04.130Z,3124.00
2018-06-04T04:16:04.052Z,3152.00
2018-06-04T04:17:03.959Z,3192.00
2018-06-04T04:18:03.864Z,3232.00
2018-06-04T04:19:03.776Z,3260.00
2018-06-04T04:20:03.717Z,3284.00
2018-06-04T04:21:03.593Z,3324.00
2018-06-04T04:22:03.507Z,3368.00
2018-06-04T04:23:03.417Z,3424.00
2018-06-04T04:24:03.326Z,3484.00
2018-06-04T04:25:03.266Z,3552.00
2018-06-04T04:26:03.156Z,3640.00
2018-06-04T04:27:03.057Z,3736.00
2018-06-04T04:28:02.987Z,3796.00
2018-06-04T04:29:02.883Z,3800.00
2018-06-04T04:30:02.819Z,3848.00
2018-06-04T04:31:02.699Z,3892.00
2018-06-04T04:32:02.609Z,3900.00
2018-06-04T04:33:02.610Z,3896.00
2018-06-04T04:34:02.435Z,3912.00
2018-06-04T04:35:02.374Z,3948.00
2018-06-04T04:36:02.249Z,3984.00
2018-06-04T04:37:02.163Z,4044.00
2018-06-04T04:38:02.073Z,4228.00
2018-06-04T04:39:01.983Z,4320.00
2018-06-04T04:40:02.017Z,4316.00
2018-06-04T04:41:02.454Z,4404.00
2018-06-04T04:42:01.715Z,4468.00
2018-06-04T04:43:01.629Z,4448.00
2018-06-04T04:44:01.539Z,4452.00
2018-06-04T04:45:01.481Z,4500.00
2018-06-04T04:46:02.006Z,4676.00
2018-06-04T04:47:01.479Z,5144.00
2018-06-04T04:48:01.181Z,5412.00
2018-06-04T04:49:01.094Z,5136.00
2018-06-04T04:50:01.031Z,5080.00
2018-06-04T04:51:00.914Z,5148.00
2018-06-04T04:52:00.824Z,5124.00
2018-06-04T04:53:00.737Z,4996.00
2018-06-04T04:54:00.741Z,5036.00
2018-06-04T04:55:00.592Z,5084.00
2018-06-04T04:56:00.473Z,5224.00
2018-06-04T04:57:00.383Z,5284.00
2018-06-04T04:58:00.293Z,5308.00
2018-06-04T04:59:00.206Z,5248.00
2018-06-04T05:00:00.148Z,5300.00
2018-06-04T05:01:00.120Z,5324.00
2018-06-04T05:01:59.947Z,5388.00
2018-06-04T05:02:59.851Z,5424.00
2018-06-04T05:03:59.765Z,5472.00
2018-06-04T05:04:59.709Z,5540.00
2018-06-04T05:05:59.588Z,5592.00
2018-06-04T05:06:59.499Z,5652.00
2018-06-04T05:07:59.508Z,5704.00
2018-06-04T05:08:59.324Z,5728.00
2018-06-04T05:09:59.268Z,5844.00
2018-06-04T05:10:59.151Z,5964.00
2018-06-04T05:11:59.063Z,6044.00
2018-06-04T05:12:58.973Z,6016.00
2018-06-04T05:13:58.883Z,6112.00
2018-06-04T05:14:58.920Z,6192.00
2018-06-04T05:15:58.708Z,6380.00
2018-06-04T05:16:58.622Z,6412.00
2018-06-04T05:17:58.532Z,6468.00
2018-06-04T05:18:58.448Z,6512.00
2018-06-04T05:19:58.387Z,6356.00
2018-06-04T05:20:58.275Z,6536.00
2018-06-04T05:21:58.280Z,6760.00
2018-06-04T05:22:58.095Z,7008.00
2018-06-04T05:23:58.011Z,7568.00
2018-06-04T05:24:57.950Z,9328.00
2018-06-04T05:25:57.838Z,11848.00
2018-06-04T05:26:57.746Z,9324.00
2018-06-04T05:27:57.658Z,7276.00
2018-06-04T05:28:57.664Z,7468.00
2018-06-04T05:29:57.490Z,7756.00
2018-06-04T05:30:57.431Z,8508.00
2018-06-04T05:31:57.310Z,8920.00
2018-06-04T05:32:57.223Z,9004.00
2018-06-04T05:33:57.141Z,8856.00
2018-06-04T05:34:57.053Z,8980.00
2018-06-04T05:35:57.086Z,9280.00
2018-06-04T05:36:56.880Z,9656.00
2018-06-04T05:37:56.792Z,9348.00
2018-06-04T05:38:57.474Z,8576.00
2018-06-04T05:39:56.618Z,8076.00
2018-06-04T05:40:56.572Z,7764.00
2018-06-04T05:41:56.442Z,7572.00
2018-06-04T05:42:56.360Z,7216.00
2018-06-04T05:43:56.277Z,7072.00
2018-06-04T05:44:56.187Z,7088.00
2018-06-04T05:45:56.131Z,7220.00
2018-06-04T05:46:56.012Z,7432.00
2018-06-04T05:47:55.926Z,7836.00
2018-06-04T05:48:55.840Z,8528.00
2018-06-04T05:49:55.771Z,8964.00
2018-06-04T05:50:55.697Z,9304.00
2018-06-04T05:51:55.580Z,8676.00
2018-06-04T05:52:55.499Z,8648.00
2018-06-04T05:53:55.409Z,8908.00
2018-06-04T05:54:55.324Z,8796.00
2018-06-04T05:55:55.274Z,8852.00
2018-06-04T05:56:55.148Z,8940.00
2018-06-04T05:57:55.062Z,8816.00
2018-06-04T05:58:54.979Z,8752.00
2018-06-04T05:59:54.892Z,8744.00
2018-06-04T06:00:54.836Z,8872.00
2018-06-04T06:01:55.532Z,8992.00
2018-06-04T06:02:54.635Z,9232.00
2018-06-04T06:03:54.546Z,9292.00
2018-06-04T06:04:54.463Z,9140.00
2018-06-04T06:05:54.408Z,9260.00
2018-06-04T06:06:54.291Z,9188.00
2018-06-04T06:07:54.206Z,9340.00
2018-06-04T06:08:54.119Z,10060.00
2018-06-04T06:09:54.032Z,10964.00
2018-06-04T06:10:53.983Z,11056.00
2018-06-04T06:11:53.864Z,10656.00
2018-06-04T06:12:53.776Z,9896.00
2018-06-04T06:13:53.704Z,9824.00
2018-06-04T06:14:53.607Z,9980.00
2018-06-04T06:15:53.551Z,10024.00
2018-06-04T06:16:53.435Z,9948.00
2018-06-04T06:17:53.349Z,9988.00
2018-06-04T06:18:53.264Z,10088.00
2018-06-04T06:19:53.228Z,10180.00
2018-06-04T06:20:53.123Z,10308.00
2018-06-04T06:21:53.008Z,10544.00
2018-06-04T06:22:52.921Z,10720.00
2018-06-04T06:23:52.837Z,10932.00
2018-06-04T06:24:52.751Z,11296.00
2018-06-04T06:25:52.697Z,11428.00
2018-06-04T06:26:52.584Z,11136.00
2018-06-04T06:27:52.494Z,10960.00
2018-06-04T06:28:53.045Z,10984.00
2018-06-04T06:29:52.327Z,11624.00
2018-06-04T06:30:52.295Z,12048.00
2018-06-04T06:31:52.160Z,12332.00
2018-06-04T06:32:52.071Z,14428.00
2018-06-04T06:33:51.984Z,16912.00
2018-06-04T06:34:51.900Z,21920.00
2018-06-04T06:35:51.816Z,27392.00
2018-06-04T06:36:51.762Z,30880.00
2018-06-04T06:37:51.645Z,31616.00
2018-06-04T06:38:51.563Z,31520.00
2018-06-04T06:39:51.475Z,32928.00
2018-06-04T06:40:51.391Z,37088.00
2018-06-04T06:41:51.339Z,45056.00
2018-06-04T06:42:51.222Z,54688.00
2018-06-04T06:43:51.133Z,63360.00
2018-06-04T06:44:51.054Z,65376.00
2018-06-04T06:45:50.968Z,62080.00
2018-06-04T06:46:50.920Z,59104.00
2018-06-04T06:47:50.801Z,55488.00
2018-06-04T06:48:50.720Z,49920.00
2018-06-04T06:49:50.637Z,54784.00
2018-06-04T06:50:50.555Z,61760.00
2018-06-04T06:51:50.503Z,70560.00
2018-06-04T06:52:50.393Z,74624.00
2018-06-04T06:53:50.309Z,71520.00
2018-06-04T06:54:50.226Z,62624.00
2018-06-04T06:55:50.149Z,53760.00
2018-06-04T06:56:50.091Z,46944.00
2018-06-04T06:57:49.998Z,44096.00
2018-06-04T06:58:50.002Z,47360.00
2018-06-04T06:59:49.821Z,53408.00
2018-06-04T07:00:49.738Z,58720.00
2018-06-04T07:01:49.693Z,62272.00
2018-06-04T07:02:49.582Z,63840.00
2018-06-04T07:03:49.501Z,63456.00
2018-06-04T07:04:49.417Z,35936.00
2018-06-04T07:05:49.432Z,50400.00
2018-06-04T07:06:49.292Z,40352.00
2018-06-04T07:07:49.179Z,32352.00
2018-06-04T07:08:49.104Z,55712.00
2018-06-04T07:09:49.019Z,61536.00
2018-06-04T07:10:48.943Z,65728.00
2018-06-04T07:11:48.893Z,62688.00
2018-06-04T07:12:48.873Z,65632.00
2018-06-04T07:13:48.706Z,66816.00
2018-06-04T07:14:48.628Z,66400.00
2018-06-04T07:15:48.550Z,65888.00
2018-06-04T07:16:48.497Z,53056.00
2018-06-04T07:17:48.387Z,58880.00
2018-06-04T07:18:48.319Z,69376.00
2018-06-04T07:19:48.326Z,68576.00
2018-06-04T07:20:48.154Z,71968.00
2018-06-04T07:21:48.106Z,73696.00
2018-06-04T07:22:48.546Z,68096.00
2018-06-04T07:23:47.921Z,27488.00
2018-06-04T07:24:47.843Z,46400.00
2018-06-04T07:25:47.763Z,61792.00
2018-06-04T07:26:47.868Z,60928.00
2018-06-04T07:27:47.606Z,59104.00
2018-06-04T07:28:47.534Z,61760.00
2018-06-04T07:29:47.450Z,65408.00
2018-06-04T07:30:47.373Z,69600.00
2018-06-04T07:31:47.329Z,73856.00
2018-06-04T07:32:47.219Z,77216.00
2018-06-04T07:33:47.252Z,72448.00
2018-06-04T07:34:47.119Z,67552.00
2018-06-04T07:35:46.987Z,66336.00
2018-06-04T07:36:46.941Z,65120.00
2018-06-04T07:37:46.834Z,67328.00
2018-06-04T07:38:46.756Z,35008.00
2018-06-04T07:39:46.679Z,25760.00
2018-06-04T07:40:46.695Z,70272.00
2018-06-04T07:41:46.557Z,24800.00
2018-06-04T07:42:46.460Z,67072.00
2018-06-04T07:43:46.372Z,33152.00
2018-06-04T07:44:46.292Z,22208.00
2018-06-04T07:45:46.219Z,48864.00
2018-06-04T07:46:46.142Z,59136.00
2018-06-04T07:47:46.191Z,60416.00
2018-06-04T07:48:45.983Z,91392.00
2018-06-04T07:49:45.940Z,91776.00
2018-06-04T07:50:45.832Z,89792.00
2018-06-04T07:51:45.755Z,87168.00
2018-06-04T07:52:45.702Z,75488.00
2018-06-04T07:53:45.598Z,67456.00
2018-06-04T07:54:45.611Z,73472.00
2018-06-04T07:55:45.442Z,71712.00
2018-06-04T07:56:45.365Z,77344.00
2018-06-04T07:57:45.324Z,86016.00
2018-06-04T07:58:45.211Z,91328.00
2018-06-04T07:59:45.132Z,82656.00
2018-06-04T08:00:45.098Z,94112.00
2018-06-04T08:01:45.079Z,96288.00
2018-06-04T08:02:44.931Z,97632.00
2018-06-04T08:03:44.824Z,56896.00
2018-06-04T08:04:44.751Z,25792.00
2018-06-04T08:05:44.670Z,20032.00
2018-06-04T08:06:44.594Z,21440.00
2018-06-04T08:07:44.546Z,19072.00
2018-06-04T08:08:44.441Z,16420.00
2018-06-04T08:09:44.362Z,15716.00
2018-06-04T08:10:44.289Z,16760.00
2018-06-04T08:11:44.210Z,18816.00
2018-06-04T08:12:44.160Z,20320.00
2018-06-04T08:13:44.053Z,22240.00
2018-06-04T08:14:43.979Z,29536.00
2018-06-04T08:15:43.904Z,36064.00
2018-06-04T08:16:44.586Z,34624.00
2018-06-04T08:17:43.779Z,104160.00
2018-06-04T08:18:43.674Z,41184.00
2018-06-04T08:19:43.590Z,82464.00
2018-06-04T08:20:43.512Z,26976.00
2018-06-04T08:21:43.569Z,20256.00
2018-06-04T08:22:43.387Z,19072.00
2018-06-04T08:23:43.278Z,17152.00
2018-06-04T08:24:43.202Z,17280.00
2018-06-04T08:25:43.123Z,17344.00
2018-06-04T08:26:43.042Z,15776.00
2018-06-04T08:27:43.004Z,16124.00
2018-06-04T08:28:42.888Z,15092.00
2018-06-04T08:29:42.808Z,14652.00
2018-06-04T08:30:42.732Z,15796.00
2018-06-04T08:31:42.650Z,16724.00
2018-06-04T08:32:42.607Z,18432.00
2018-06-04T08:33:42.505Z,17984.00
2018-06-04T08:34:42.414Z,17920.00
2018-06-04T08:35:42.333Z,19680.00
2018-06-04T08:36:42.258Z,18560.00
2018-06-04T08:37:42.207Z,19264.00
2018-06-04T08:38:42.095Z,21920.00
2018-06-04T08:39:42.015Z,22816.00
2018-06-04T08:40:41.937Z,20640.00
2018-06-04T08:41:41.857Z,21056.00
2018-06-04T08:42:41.808Z,24000.00
2018-06-04T08:43:41.698Z,22368.00
2018-06-04T08:44:41.618Z,19968.00
2018-06-04T08:45:41.573Z,19936.00
2018-06-04T08:46:41.457Z,16824.00
2018-06-04T08:47:41.379Z,14464.00
2018-06-04T08:48:41.327Z,14428.00
2018-06-04T08:49:41.219Z,14488.00
2018-06-04T08:50:41.142Z,14508.00
2018-06-04T08:51:41.053Z,14268.00
2018-06-04T08:52:40.976Z,13768.00
2018-06-04T08:53:41.552Z,13956.00
2018-06-04T08:54:40.816Z,14408.00
2018-06-04T08:55:40.735Z,13068.00
2018-06-04T08:56:40.661Z,12520.00
2018-06-04T08:57:40.573Z,11268.00
2018-06-04T08:58:40.522Z,10936.00
2018-06-04T08:59:40.411Z,11168.00
2018-06-04T09:00:40.330Z,11156.00
2018-06-04T09:01:40.248Z,11200.00
2018-06-04T09:02:40.168Z,10880.00
2018-06-04T09:03:40.117Z,10872.00
2018-06-04T09:04:40.013Z,10252.00
2018-06-04T09:05:39.926Z,10160.00
2018-06-04T09:06:39.841Z,10964.00
2018-06-04T09:07:39.764Z,11752.00
2018-06-04T09:08:39.728Z,13132.00
2018-06-04T09:09:39.600Z,13848.00
2018-06-04T09:10:39.517Z,15232.00
2018-06-04T09:11:39.435Z,17100.00
2018-06-04T09:12:39.352Z,16176.00
2018-06-04T09:13:39.308Z,15828.00
2018-06-04T09:14:39.196Z,16656.00
2018-06-04T09:15:39.169Z,17272.00
2018-06-04T09:16:39.030Z,18304.00
2018-06-04T09:17:38.947Z,20640.00
2018-06-04T09:18:38.901Z,26592.00
2018-06-04T09:19:38.784Z,110304.00
2018-06-04T09:20:38.705Z,67456.00
2018-06-04T09:21:38.629Z,48864.00
2018-06-04T09:22:38.539Z,48992.00
2018-06-04T09:23:39.057Z,32416.00
2018-06-04T09:24:38.376Z,26304.00
2018-06-04T09:25:38.296Z,37760.00
2018-06-04T09:26:38.214Z,99008.00
2018-06-04T09:27:38.132Z,105888.00
2018-06-04T09:28:38.083Z,113472.00
2018-06-04T09:29:37.973Z,115936.00
2018-06-04T09:30:37.888Z,112384.00
2018-06-04T09:31:37.809Z,99936.00
2018-06-04T09:32:37.732Z,107072.00
2018-06-04T09:33:37.707Z,108928.00
2018-06-04T09:34:37.569Z,107904.00
2018-06-04T09:35:37.513Z,113248.00
2018-06-04T09:36:37.405Z,111424.00
2018-06-04T09:37:37.389Z,121696.00
2018-06-04T09:38:37.283Z,115456.00
2018-06-04T09:39:37.260Z,121280.00
2018-06-04T09:40:37.091Z,121760.00
2018-06-04T09:41:37.012Z,117120.00
2018-06-04T09:42:36.934Z,116000.00
2018-06-04T09:43:36.900Z,107904.00
2018-06-04T09:44:36.775Z,123648.00
2018-06-04T09:45:36.694Z,36672.00
2018-06-04T09:46:36.710Z,47328.00
2018-06-04T09:47:36.616Z,24032.00
2018-06-04T09:48:36.493Z,20960.00
2018-06-04T11:00:48.312Z,118048.00
2018-06-04T11:01:48.193Z,108576.00
2018-06-04T11:02:48.107Z,115072.00
2018-06-04T11:03:48.025Z,108320.00
2018-06-04T11:04:47.972Z,106944.00
2018-06-04T11:05:47.858Z,116128.00
2018-06-04T11:06:48.061Z,107360.00
2018-06-04T11:07:47.698Z,111232.00
2018-06-04T11:08:47.612Z,109184.00
2018-06-04T11:09:47.565Z,119616.00
2018-06-04T11:10:47.447Z,118848.00
2018-06-04T11:11:47.371Z,111040.00
2018-06-04T11:12:47.290Z,112480.00
2018-06-04T11:13:47.307Z,119712.00
2018-06-04T11:14:47.163Z,116160.00
2018-06-04T11:15:47.056Z,113088.00
2018-06-04T11:16:46.975Z,118592.00
2018-06-04T11:17:46.896Z,115296.00
2018-06-04T11:18:46.846Z,125056.00
2018-06-04T11:19:46.767Z,123328.00
2018-06-04T11:20:46.664Z,115424.00
2018-06-04T11:21:46.594Z,113920.00
2018-06-04T11:22:46.510Z,115552.00
2018-06-04T11:23:46.433Z,81312.00
2018-06-04T11:24:46.387Z,119808.00
2018-06-04T11:25:46.339Z,126464.00
2018-06-04T11:26:46.201Z,110432.00
2018-06-04T11:27:46.219Z,106368.00
2018-06-04T11:28:46.049Z,85088.00
2018-06-04T11:29:45.975Z,109472.00
2018-06-04T11:30:45.925Z,112288.00
2018-06-04T11:31:45.834Z,125280.00
2018-06-04T11:32:45.747Z,119776.00
2018-06-04T11:33:45.668Z,121504.00
2018-06-04T11:34:45.594Z,25088.00
2018-06-04T11:35:45.551Z,23552.00
2018-06-04T11:36:45.442Z,23776.00
2018-06-04T11:37:45.368Z,23808.00
2018-06-04T11:38:45.289Z,24736.00
2018-06-04T11:39:45.219Z,65856.00
2018-06-04T11:40:45.170Z,106688.00
2018-06-04T11:41:45.064Z,111296.00
2018-06-04T11:42:44.988Z,105376.00
2018-06-04T11:43:44.912Z,123232.00
2018-06-04T11:44:44.836Z,137248.00
2018-06-04T11:45:44.789Z,116160.00
2018-06-04T11:46:44.689Z,109760.00
2018-06-04T11:47:44.611Z,112736.00
2018-06-04T11:48:44.533Z,77664.00
2018-06-04T11:49:44.460Z,107296.00
2018-06-04T11:50:44.413Z,107488.00
2018-06-04T11:51:44.310Z,102560.00
2018-06-04T11:52:44.232Z,31968.00
2018-06-04T11:53:44.157Z,116864.00
2018-06-04T11:54:44.081Z,62880.00
2018-06-04T11:55:44.039Z,28032.00
2018-06-04T11:56:43.953Z,35808.00
2018-06-04T11:57:43.855Z,65632.00
2018-06-04T11:58:43.788Z,117440.00
2018-06-04T11:59:43.706Z,108128.00
2018-06-04T12:00:43.708Z,111712.00
2018-06-04T12:01:43.562Z,114240.00
2018-06-04T12:02:43.482Z,102240.00
2018-06-04T12:03:43.405Z,105664.00
2018-06-04T12:04:43.326Z,121696.00
2018-06-04T12:05:43.289Z,115744.00
2018-06-04T12:06:43.180Z,107104.00
2018-06-04T12:07:43.104Z,108160.00
2018-06-04T12:08:43.030Z,107456.00
2018-06-04T12:09:42.955Z,99232.00
2018-06-04T12:10:42.912Z,104416.00
2018-06-04T12:11:42.869Z,107552.00
2018-06-04T12:12:42.728Z,95808.00
2018-06-04T12:13:42.656Z,98944.00
2018-06-04T12:14:42.581Z,94720.00
2018-06-04T12:15:42.538Z,91456.00
2018-06-04T12:16:42.429Z,94144.00
2018-06-04T12:17:42.356Z,90624.00
2018-06-04T12:18:42.281Z,89408.00
2018-06-04T12:19:42.208Z,103296.00
2018-06-04T12:20:42.165Z,107168.00
2018-06-04T12:21:42.055Z,98240.00
2018-06-04T12:22:41.981Z,113152.00
2018-06-04T12:23:41.911Z,109120.00
2018-06-04T12:24:41.832Z,102400.00
2018-06-04T12:25:41.789Z,115904.00
2018-06-04T12:26:41.685Z,116704.00
2018-06-04T12:27:41.610Z,108672.00
2018-06-04T12:28:41.531Z,105792.00
2018-06-04T12:29:41.459Z,105536.00
2018-06-04T12:30:41.416Z,107744.00
2018-06-04T12:31:41.310Z,108544.00
2018-06-04T12:32:41.237Z,104032.00
2018-06-04T12:33:41.162Z,111072.00
2018-06-04T12:34:41.084Z,118528.00
2018-06-04T12:35:41.043Z,111296.00
2018-06-04T12:36:40.937Z,105984.00
2018-06-04T12:37:40.867Z,105120.00
2018-06-04T12:38:40.789Z,107872.00
2018-06-04T12:39:40.712Z,106080.00
2018-06-04T12:40:40.639Z,101088.00
2018-06-04T12:41:40.597Z,103872.00
2018-06-04T12:42:40.489Z,108096.00
2018-06-04T12:43:40.416Z,107040.00
2018-06-04T12:44:40.340Z,104896.00
2018-06-04T12:45:40.268Z,98016.00
2018-06-04T12:46:40.221Z,101920.00
2018-06-04T12:47:40.115Z,105408.00
2018-06-04T12:48:40.040Z,92768.00
2018-06-04T12:49:39.964Z,103776.00
2018-06-04T12:50:39.984Z,102464.00
2018-06-04T12:51:39.850Z,100672.00
2018-06-04T12:52:39.740Z,101408.00
2018-06-04T12:53:39.669Z,99424.00
2018-06-04T12:54:39.591Z,109056.00
2018-06-04T12:55:39.518Z,103808.00
2018-06-04T12:56:39.480Z,94624.00
2018-06-04T12:57:39.468Z,99008.00
2018-06-04T12:58:39.293Z,101184.00
2018-06-04T12:59:39.223Z,97600.00
2018-06-04T13:00:39.146Z,96256.00
2018-06-04T13:01:39.103Z,102112.00
2018-06-04T13:02:38.996Z,103264.00
2018-06-04T13:03:38.923Z,99264.00
2018-06-04T13:04:38.985Z,102656.00
2018-06-04T13:05:38.773Z,99488.00
2018-06-04T13:06:38.728Z,101152.00
2018-06-04T13:07:38.628Z,102752.00
2018-06-04T13:08:38.548Z,94784.00
2018-06-04T13:09:38.474Z,96448.00
2018-06-04T13:10:38.406Z,99904.00
2018-06-04T13:11:38.463Z,92448.00
2018-06-04T13:12:38.248Z,98816.00
2018-06-04T13:13:38.176Z,100640.00
2018-06-04T13:14:38.101Z,103232.00
2018-06-04T13:15:38.026Z,97888.00
2018-06-04T13:16:37.977Z,97504.00
2018-06-04T13:17:37.877Z,90624.00